sensor_id;sensor_type;location;lat;lon;timestamp;P1;durP1;ratioP1;P2;durP2;ratioP2
8252;SDS011;61313;48.396;10.008;2022-10-16T00:00:43;12.30;;;4.97;;
8252;SDS011;61313;48.396;10.008;2022-10-16T00:03:10;7.43;;;4.40;;
8252;SDS011;61313;48.396;10.008;2022-10-16T00:05:40;7.63;;;4.43;;
8252;SDS011;61313;48.396;10.008;2022-10-16T00:08:07;10.07;;;4.80;;
8252;SDS011;61313;48.396;10.008;2022-10-16T00:10:33;7.07;;;4.87;;
8252;SDS011;61313;48.396;10.008;2022-10-16T00:12:59;4.00;;;3.30;;
8252;SDS011;61313;48.396;10.008;2022-10-16T00:15:25;11.83;;;4.30;;
8252;SDS011;61313;48.396;10.008;2022-10-16T00:17:51;5.97;;;4.27;;
8252;SDS011;61313;48.396;10.008;2022-10-16T00:20:17;11.00;;;4.43;;
8252;SDS011;61313;48.396;10.008;2022-10-16T00:22:42;8.17;;;3.87;;
8252;SDS011;61313;48.396;10.008;2022-10-16T00:25:08;10.57;;;4.67;;
8252;SDS011;61313;48.396;10.008;2022-10-16T00:27:34;11.63;;;5.50;;
8252;SDS011;61313;48.396;10.008;2022-10-16T00:29:59;14.90;;;4.33;;
8252;SDS011;61313;48.396;10.008;2022-10-16T00:32:25;16.07;;;4.40;;
8252;SDS011;61313;48.396;10.008;2022-10-16T00:34:51;8.87;;;5.23;;
8252;SDS011;61313;48.396;10.008;2022-10-16T00:37:19;11.97;;;5.07;;
8252;SDS011;61313;48.396;10.008;2022-10-16T00:39:45;17.37;;;6.03;;
8252;SDS011;61313;48.396;10.008;2022-10-16T00:42:19;6.87;;;3.90;;
8252;SDS011;61313;48.396;10.008;2022-10-16T00:50:27;6.30;;;4.60;;
8252;SDS011;61313;48.396;10.008;2022-10-16T00:52:55;13.87;;;6.40;;
8252;SDS011;61313;48.396;10.008;2022-10-16T00:55:23;10.20;;;4.70;;
8252;SDS011;61313;48.396;10.008;2022-10-16T00:57:50;7.23;;;4.77;;
8252;SDS011;61313;48.396;10.008;2022-10-16T01:00:18;8.37;;;5.00;;
8252;SDS011;61313;48.396;10.008;2022-10-16T01:02:53;5.40;;;4.60;;
8252;SDS011;61313;48.396;10.008;2022-10-16T01:05:23;8.53;;;4.77;;
8252;SDS011;61313;48.396;10.008;2022-10-16T01:08:16;8.20;;;4.30;;
8252;SDS011;61313;48.396;10.008;2022-10-16T01:10:58;20.63;;;5.20;;
8252;SDS011;61313;48.396;10.008;2022-10-16T01:13:35;7.57;;;4.67;;
8252;SDS011;61313;48.396;10.008;2022-10-16T01:16:09;7.87;;;4.53;;
8252;SDS011;61313;48.396;10.008;2022-10-16T01:21:16;17.30;;;5.10;;
8252;SDS011;61313;48.396;10.008;2022-10-16T01:23:57;11.33;;;4.67;;
8252;SDS011;61313;48.396;10.008;2022-10-16T01:32:34;7.00;;;5.00;;
8252;SDS011;61313;48.396;10.008;2022-10-16T01:35:08;8.17;;;4.67;;
8252;SDS011;61313;48.396;10.008;2022-10-16T01:40:28;4.20;;;3.80;;
8252;SDS011;61313;48.396;10.008;2022-10-16T01:42:57;5.50;;;4.47;;
8252;SDS011;61313;48.396;10.008;2022-10-16T01:45:30;9.53;;;5.00;;
8252;SDS011;61313;48.396;10.008;2022-10-16T01:47:58;5.10;;;4.57;;
8252;SDS011;61313;48.396;10.008;2022-10-16T01:50:29;5.80;;;5.07;;
8252;SDS011;61313;48.396;10.008;2022-10-16T01:52:58;8.73;;;4.00;;
8252;SDS011;61313;48.396;10.008;2022-10-16T01:55:31;5.20;;;4.23;;
8252;SDS011;61313;48.396;10.008;2022-10-16T01:58:01;6.57;;;5.13;;
8252;SDS011;61313;48.396;10.008;2022-10-16T02:00:29;6.03;;;5.00;;
8252;SDS011;61313;48.396;10.008;2022-10-16T02:02:55;6.90;;;4.93;;
8252;SDS011;61313;48.396;10.008;2022-10-16T02:05:26;7.70;;;4.70;;
8252;SDS011;61313;48.396;10.008;2022-10-16T02:07:56;6.70;;;4.50;;
8252;SDS011;61313;48.396;10.008;2022-10-16T02:10:22;11.53;;;5.00;;
8252;SDS011;61313;48.396;10.008;2022-10-16T02:12:50;9.13;;;4.50;;
8252;SDS011;61313;48.396;10.008;2022-10-16T02:15:22;6.70;;;4.50;;
8252;SDS011;61313;48.396;10.008;2022-10-16T02:17:48;7.43;;;4.20;;
8252;SDS011;61313;48.396;10.008;2022-10-16T02:20:13;26.50;;;5.77;;
8252;SDS011;61313;48.396;10.008;2022-10-16T02:22:41;12.20;;;5.63;;
8252;SDS011;61313;48.396;10.008;2022-10-16T02:25:29;6.83;;;5.10;;
8252;SDS011;61313;48.396;10.008;2022-10-16T02:28:01;9.47;;;4.87;;
8252;SDS011;61313;48.396;10.008;2022-10-16T02:30:50;6.30;;;3.90;;
8252;SDS011;61313;48.396;10.008;2022-10-16T02:33:23;5.70;;;4.90;;
8252;SDS011;61313;48.396;10.008;2022-10-16T02:35:51;4.60;;;4.20;;
8252;SDS011;61313;48.396;10.008;2022-10-16T02:38:18;10.43;;;4.60;;
8252;SDS011;61313;48.396;10.008;2022-10-16T02:40:46;8.13;;;4.57;;
8252;SDS011;61313;48.396;10.008;2022-10-16T02:43:12;5.30;;;3.90;;
8252;SDS011;61313;48.396;10.008;2022-10-16T02:45:38;6.70;;;5.10;;
8252;SDS011;61313;48.396;10.008;2022-10-16T02:48:04;6.33;;;3.90;;
8252;SDS011;61313;48.396;10.008;2022-10-16T02:50:30;10.07;;;4.73;;
8252;SDS011;61313;48.396;10.008;2022-10-16T02:52:56;7.53;;;4.80;;
8252;SDS011;61313;48.396;10.008;2022-10-16T02:55:21;8.60;;;4.70;;
8252;SDS011;61313;48.396;10.008;2022-10-16T02:57:47;5.53;;;4.57;;
8252;SDS011;61313;48.396;10.008;2022-10-16T03:00:13;9.60;;;3.93;;
8252;SDS011;61313;48.396;10.008;2022-10-16T03:02:40;6.67;;;4.90;;
8252;SDS011;61313;48.396;10.008;2022-10-16T03:05:06;6.73;;;3.90;;
8252;SDS011;61313;48.396;10.008;2022-10-16T03:07:32;5.10;;;4.47;;
8252;SDS011;61313;48.396;10.008;2022-10-16T03:09:59;4.37;;;3.97;;
8252;SDS011;61313;48.396;10.008;2022-10-16T03:12:25;5.57;;;5.07;;
8252;SDS011;61313;48.396;10.008;2022-10-16T03:14:52;6.63;;;3.50;;
8252;SDS011;61313;48.396;10.008;2022-10-16T03:17:18;8.00;;;5.17;;
8252;SDS011;61313;48.396;10.008;2022-10-16T03:19:43;4.50;;;3.90;;
8252;SDS011;61313;48.396;10.008;2022-10-16T03:22:10;5.43;;;4.80;;
8252;SDS011;61313;48.396;10.008;2022-10-16T03:24:35;4.70;;;4.17;;
8252;SDS011;61313;48.396;10.008;2022-10-16T03:27:01;10.40;;;4.10;;
8252;SDS011;61313;48.396;10.008;2022-10-16T03:29:27;7.80;;;4.50;;
8252;SDS011;61313;48.396;10.008;2022-10-16T03:31:54;6.70;;;4.40;;
8252;SDS011;61313;48.396;10.008;2022-10-16T03:34:20;5.33;;;4.60;;
8252;SDS011;61313;48.396;10.008;2022-10-16T03:36:46;7.70;;;4.60;;
8252;SDS011;61313;48.396;10.008;2022-10-16T03:39:12;6.00;;;4.47;;
8252;SDS011;61313;48.396;10.008;2022-10-16T03:41:37;7.67;;;4.17;;
8252;SDS011;61313;48.396;10.008;2022-10-16T03:44:03;4.63;;;3.90;;
8252;SDS011;61313;48.396;10.008;2022-10-16T03:46:29;7.30;;;4.03;;
8252;SDS011;61313;48.396;10.008;2022-10-16T03:48:55;7.60;;;4.00;;
8252;SDS011;61313;48.396;10.008;2022-10-16T03:51:20;4.87;;;3.63;;
8252;SDS011;61313;48.396;10.008;2022-10-16T03:53:46;5.23;;;3.60;;
8252;SDS011;61313;48.396;10.008;2022-10-16T03:56:12;4.63;;;3.90;;
8252;SDS011;61313;48.396;10.008;2022-10-16T03:58:37;10.93;;;4.03;;
8252;SDS011;61313;48.396;10.008;2022-10-16T04:01:03;4.60;;;4.13;;
8252;SDS011;61313;48.396;10.008;2022-10-16T04:03:29;4.17;;;3.30;;
8252;SDS011;61313;48.396;10.008;2022-10-16T04:05:55;6.50;;;3.90;;
8252;SDS011;61313;48.396;10.008;2022-10-16T04:08:20;5.00;;;4.23;;
8252;SDS011;61313;48.396;10.008;2022-10-16T04:10:46;19.10;;;5.40;;
8252;SDS011;61313;48.396;10.008;2022-10-16T04:13:12;6.50;;;4.40;;
8252;SDS011;61313;48.396;10.008;2022-10-16T04:15:38;6.43;;;4.60;;
8252;SDS011;61313;48.396;10.008;2022-10-16T04:18:04;8.10;;;4.00;;
8252;SDS011;61313;48.396;10.008;2022-10-16T04:20:30;3.90;;;3.30;;
8252;SDS011;61313;48.396;10.008;2022-10-16T04:22:56;6.20;;;3.63;;
8252;SDS011;61313;48.396;10.008;2022-10-16T04:25:22;17.63;;;4.73;;
8252;SDS011;61313;48.396;10.008;2022-10-16T04:27:48;6.50;;;3.77;;
8252;SDS011;61313;48.396;10.008;2022-10-16T04:30:13;4.90;;;3.17;;
8252;SDS011;61313;48.396;10.008;2022-10-16T04:32:39;9.50;;;4.53;;
8252;SDS011;61313;48.396;10.008;2022-10-16T04:35:06;9.90;;;3.77;;
8252;SDS011;61313;48.396;10.008;2022-10-16T04:37:32;7.20;;;4.00;;
8252;SDS011;61313;48.396;10.008;2022-10-16T04:39:58;5.27;;;4.33;;
8252;SDS011;61313;48.396;10.008;2022-10-16T04:42:23;19.90;;;4.43;;
8252;SDS011;61313;48.396;10.008;2022-10-16T04:44:49;36.40;;;6.40;;
8252;SDS011;61313;48.396;10.008;2022-10-16T04:47:15;4.80;;;3.17;;
8252;SDS011;61313;48.396;10.008;2022-10-16T04:49:40;10.50;;;3.90;;
8252;SDS011;61313;48.396;10.008;2022-10-16T04:52:06;5.70;;;3.40;;
8252;SDS011;61313;48.396;10.008;2022-10-16T04:54:34;8.30;;;3.50;;
8252;SDS011;61313;48.396;10.008;2022-10-16T04:56:59;7.50;;;3.60;;
8252;SDS011;61313;48.396;10.008;2022-10-16T04:59:25;8.23;;;4.50;;
8252;SDS011;61313;48.396;10.008;2022-10-16T05:01:51;17.73;;;5.30;;
8252;SDS011;61313;48.396;10.008;2022-10-16T05:04:16;24.53;;;6.83;;
8252;SDS011;61313;48.396;10.008;2022-10-16T05:06:42;10.70;;;5.40;;
8252;SDS011;61313;48.396;10.008;2022-10-16T05:09:08;16.00;;;5.20;;
8252;SDS011;61313;48.396;10.008;2022-10-16T05:11:34;27.50;;;6.03;;
8252;SDS011;61313;48.396;10.008;2022-10-16T05:14:00;21.00;;;4.60;;
8252;SDS011;61313;48.396;10.008;2022-10-16T05:16:26;23.13;;;5.80;;
8252;SDS011;61313;48.396;10.008;2022-10-16T05:18:52;6.40;;;5.10;;
8252;SDS011;61313;48.396;10.008;2022-10-16T05:21:19;10.27;;;4.70;;
8252;SDS011;61313;48.396;10.008;2022-10-16T05:23:45;12.43;;;4.50;;
8252;SDS011;61313;48.396;10.008;2022-10-16T05:26:11;5.30;;;4.40;;
8252;SDS011;61313;48.396;10.008;2022-10-16T05:28:36;9.80;;;5.13;;
8252;SDS011;61313;48.396;10.008;2022-10-16T05:31:06;7.60;;;4.70;;
8252;SDS011;61313;48.396;10.008;2022-10-16T05:33:32;18.57;;;6.10;;
8252;SDS011;61313;48.396;10.008;2022-10-16T05:36:02;4.97;;;4.50;;
8252;SDS011;61313;48.396;10.008;2022-10-16T05:38:28;9.47;;;4.00;;
8252;SDS011;61313;48.396;10.008;2022-10-16T05:40:54;12.00;;;4.27;;
8252;SDS011;61313;48.396;10.008;2022-10-16T05:43:21;43.70;;;6.47;;
8252;SDS011;61313;48.396;10.008;2022-10-16T05:45:54;24.20;;;5.87;;
8252;SDS011;61313;48.396;10.008;2022-10-16T05:48:20;39.10;;;7.50;;
8252;SDS011;61313;48.396;10.008;2022-10-16T05:50:47;7.50;;;4.30;;
8252;SDS011;61313;48.396;10.008;2022-10-16T05:53:12;22.70;;;5.47;;
8252;SDS011;61313;48.396;10.008;2022-10-16T05:55:38;8.23;;;5.17;;
8252;SDS011;61313;48.396;10.008;2022-10-16T05:58:04;5.43;;;3.60;;
8252;SDS011;61313;48.396;10.008;2022-10-16T06:00:29;17.93;;;4.30;;
8252;SDS011;61313;48.396;10.008;2022-10-16T06:02:55;82.30;;;10.17;;
8252;SDS011;61313;48.396;10.008;2022-10-16T06:05:21;22.17;;;5.60;;
8252;SDS011;61313;48.396;10.008;2022-10-16T06:07:46;47.30;;;7.30;;
8252;SDS011;61313;48.396;10.008;2022-10-16T06:10:12;61.63;;;8.63;;
8252;SDS011;61313;48.396;10.008;2022-10-16T06:12:38;18.33;;;4.93;;
8252;SDS011;61313;48.396;10.008;2022-10-16T06:15:03;50.77;;;8.00;;
8252;SDS011;61313;48.396;10.008;2022-10-16T06:17:29;23.63;;;5.10;;
8252;SDS011;61313;48.396;10.008;2022-10-16T06:19:55;31.03;;;5.50;;
8252;SDS011;61313;48.396;10.008;2022-10-16T06:22:21;26.70;;;5.27;;
8252;SDS011;61313;48.396;10.008;2022-10-16T06:24:46;17.93;;;4.80;;
8252;SDS011;61313;48.396;10.008;2022-10-16T06:27:12;22.50;;;6.27;;
8252;SDS011;61313;48.396;10.008;2022-10-16T06:29:38;16.60;;;5.60;;
8252;SDS011;61313;48.396;10.008;2022-10-16T06:32:04;5.17;;;4.77;;
8252;SDS011;61313;48.396;10.008;2022-10-16T06:34:29;6.97;;;4.40;;
8252;SDS011;61313;48.396;10.008;2022-10-16T06:36:55;8.30;;;4.17;;
8252;SDS011;61313;48.396;10.008;2022-10-16T06:39:21;12.07;;;5.93;;
8252;SDS011;61313;48.396;10.008;2022-10-16T06:41:46;66.43;;;10.97;;
8252;SDS011;61313;48.396;10.008;2022-10-16T06:44:12;49.23;;;7.70;;
8252;SDS011;61313;48.396;10.008;2022-10-16T06:46:37;22.37;;;6.70;;
8252;SDS011;61313;48.396;10.008;2022-10-16T06:49:03;14.53;;;4.70;;
8252;SDS011;61313;48.396;10.008;2022-10-16T06:51:29;44.50;;;8.47;;
8252;SDS011;61313;48.396;10.008;2022-10-16T06:53:56;15.57;;;5.80;;
8252;SDS011;61313;48.396;10.008;2022-10-16T06:56:23;21.63;;;5.87;;
8252;SDS011;61313;48.396;10.008;2022-10-16T06:58:51;13.93;;;5.30;;
8252;SDS011;61313;48.396;10.008;2022-10-16T07:01:18;9.80;;;5.87;;
8252;SDS011;61313;48.396;10.008;2022-10-16T07:03:45;11.73;;;5.30;;
8252;SDS011;61313;48.396;10.008;2022-10-16T07:06:12;9.10;;;5.40;;
8252;SDS011;61313;48.396;10.008;2022-10-16T07:08:40;21.20;;;6.40;;
8252;SDS011;61313;48.396;10.008;2022-10-16T07:11:08;12.53;;;4.83;;
8252;SDS011;61313;48.396;10.008;2022-10-16T07:13:36;24.07;;;6.03;;
8252;SDS011;61313;48.396;10.008;2022-10-16T07:16:06;40.97;;;8.60;;
8252;SDS011;61313;48.396;10.008;2022-10-16T07:18:34;16.43;;;6.40;;
8252;SDS011;61313;48.396;10.008;2022-10-16T07:21:08;31.20;;;7.10;;
8252;SDS011;61313;48.396;10.008;2022-10-16T07:23:36;31.37;;;7.27;;
8252;SDS011;61313;48.396;10.008;2022-10-16T07:26:02;23.73;;;6.07;;
8252;SDS011;61313;48.396;10.008;2022-10-16T07:28:28;28.97;;;7.60;;
8252;SDS011;61313;48.396;10.008;2022-10-16T07:30:54;26.90;;;6.83;;
8252;SDS011;61313;48.396;10.008;2022-10-16T07:33:20;29.73;;;5.73;;
8252;SDS011;61313;48.396;10.008;2022-10-16T07:35:52;64.40;;;10.43;;
8252;SDS011;61313;48.396;10.008;2022-10-16T07:38:19;60.03;;;8.10;;
8252;SDS011;61313;48.396;10.008;2022-10-16T07:40:45;16.00;;;6.23;;
8252;SDS011;61313;48.396;10.008;2022-10-16T07:43:11;11.83;;;5.40;;
8252;SDS011;61313;48.396;10.008;2022-10-16T07:45:37;13.73;;;4.90;;
8252;SDS011;61313;48.396;10.008;2022-10-16T07:48:11;26.37;;;5.60;;
8252;SDS011;61313;48.396;10.008;2022-10-16T07:50:36;9.77;;;6.23;;
8252;SDS011;61313;48.396;10.008;2022-10-16T07:53:03;25.07;;;5.77;;
8252;SDS011;61313;48.396;10.008;2022-10-16T07:55:28;12.30;;;4.80;;
8252;SDS011;61313;48.396;10.008;2022-10-16T07:57:54;27.50;;;6.73;;
8252;SDS011;61313;48.396;10.008;2022-10-16T08:00:20;15.60;;;5.60;;
8252;SDS011;61313;48.396;10.008;2022-10-16T08:02:46;17.83;;;5.43;;
8252;SDS011;61313;48.396;10.008;2022-10-16T08:05:11;14.23;;;4.93;;
8252;SDS011;61313;48.396;10.008;2022-10-16T08:07:37;25.50;;;6.80;;
8252;SDS011;61313;48.396;10.008;2022-10-16T08:10:03;125.47;;;13.43;;
8252;SDS011;61313;48.396;10.008;2022-10-16T08:12:29;20.53;;;5.70;;
8252;SDS011;61313;48.396;10.008;2022-10-16T08:14:55;16.03;;;5.90;;
8252;SDS011;61313;48.396;10.008;2022-10-16T08:17:20;11.60;;;5.20;;
8252;SDS011;61313;48.396;10.008;2022-10-16T08:19:46;14.37;;;5.47;;
8252;SDS011;61313;48.396;10.008;2022-10-16T08:22:12;18.67;;;6.60;;
8252;SDS011;61313;48.396;10.008;2022-10-16T08:24:39;14.93;;;5.07;;
8252;SDS011;61313;48.396;10.008;2022-10-16T08:27:04;30.23;;;6.40;;
8252;SDS011;61313;48.396;10.008;2022-10-16T08:29:30;50.30;;;7.27;;
8252;SDS011;61313;48.396;10.008;2022-10-16T08:31:56;28.00;;;7.60;;
8252;SDS011;61313;48.396;10.008;2022-10-16T08:34:22;11.40;;;4.77;;
8252;SDS011;61313;48.396;10.008;2022-10-16T08:36:47;7.50;;;4.67;;
8252;SDS011;61313;48.396;10.008;2022-10-16T08:39:13;10.93;;;5.23;;
8252;SDS011;61313;48.396;10.008;2022-10-16T08:44:19;20.47;;;9.00;;
8252;SDS011;61313;48.396;10.008;2022-10-16T08:50:18;31.17;;;8.00;;
8252;SDS011;61313;48.396;10.008;2022-10-16T08:52:41;28.83;;;6.07;;
8252;SDS011;61313;48.396;10.008;2022-10-16T08:55:31;28.50;;;7.37;;
8252;SDS011;61313;48.396;10.008;2022-10-16T08:58:18;19.67;;;5.97;;
8252;SDS011;61313;48.396;10.008;2022-10-16T09:00:47;8.83;;;4.60;;
8252;SDS011;61313;48.396;10.008;2022-10-16T09:08:35;5.30;;;4.70;;
8252;SDS011;61313;48.396;10.008;2022-10-16T09:16:39;10.10;;;5.50;;
8252;SDS011;61313;48.396;10.008;2022-10-16T09:21:50;25.97;;;7.10;;
8252;SDS011;61313;48.396;10.008;2022-10-16T09:24:18;89.63;;;13.80;;
8252;SDS011;61313;48.396;10.008;2022-10-16T09:26:50;20.83;;;6.30;;
8252;SDS011;61313;48.396;10.008;2022-10-16T09:29:16;62.77;;;10.13;;
8252;SDS011;61313;48.396;10.008;2022-10-16T09:31:45;34.50;;;8.37;;
8252;SDS011;61313;48.396;10.008;2022-10-16T09:36:45;37.33;;;9.70;;
8252;SDS011;61313;48.396;10.008;2022-10-16T09:39:12;52.30;;;9.00;;
8252;SDS011;61313;48.396;10.008;2022-10-16T09:41:38;33.10;;;6.60;;
8252;SDS011;61313;48.396;10.008;2022-10-16T09:46:47;14.83;;;5.20;;
8252;SDS011;61313;48.396;10.008;2022-10-16T09:49:23;5.53;;;4.20;;
8252;SDS011;61313;48.396;10.008;2022-10-16T09:51:51;9.30;;;4.93;;
8252;SDS011;61313;48.396;10.008;2022-10-16T09:54:28;41.30;;;8.17;;
8252;SDS011;61313;48.396;10.008;2022-10-16T09:57:03;102.13;;;14.93;;
8252;SDS011;61313;48.396;10.008;2022-10-16T09:59:31;26.70;;;6.40;;
8252;SDS011;61313;48.396;10.008;2022-10-16T10:02:00;9.73;;;4.43;;
8252;SDS011;61313;48.396;10.008;2022-10-16T10:04:36;48.30;;;8.07;;
8252;SDS011;61313;48.396;10.008;2022-10-16T10:07:05;47.77;;;7.93;;
8252;SDS011;61313;48.396;10.008;2022-10-16T10:09:42;46.37;;;8.70;;
8252;SDS011;61313;48.396;10.008;2022-10-16T10:12:19;80.30;;;10.43;;
8252;SDS011;61313;48.396;10.008;2022-10-16T10:14:56;22.13;;;6.67;;
8252;SDS011;61313;48.396;10.008;2022-10-16T10:17:27;9.53;;;4.10;;
8252;SDS011;61313;48.396;10.008;2022-10-16T10:19:54;31.10;;;6.13;;
8252;SDS011;61313;48.396;10.008;2022-10-16T10:30:29;27.30;;;5.30;;
8252;SDS011;61313;48.396;10.008;2022-10-16T10:55:23;13.30;;;3.93;;
8252;SDS011;61313;48.396;10.008;2022-10-16T11:01:01;18.77;;;4.00;;
8252;SDS011;61313;48.396;10.008;2022-10-16T11:06:22;16.07;;;3.90;;
8252;SDS011;61313;48.396;10.008;2022-10-16T11:11:38;28.90;;;5.47;;
8252;SDS011;61313;48.396;10.008;2022-10-16T11:14:22;19.60;;;4.67;;
8252;SDS011;61313;48.396;10.008;2022-10-16T11:16:56;4.63;;;3.33;;
8252;SDS011;61313;48.396;10.008;2022-10-16T11:27:17;23.70;;;4.90;;
8252;SDS011;61313;48.396;10.008;2022-10-16T11:29:49;32.30;;;6.50;;
8252;SDS011;61313;48.396;10.008;2022-10-16T11:32:45;73.03;;;9.03;;
8252;SDS011;61313;48.396;10.008;2022-10-16T11:38:09;30.90;;;6.63;;
8252;SDS011;61313;48.396;10.008;2022-10-16T11:40:40;28.23;;;6.70;;
8252;SDS011;61313;48.396;10.008;2022-10-16T11:46:02;20.00;;;4.80;;
8252;SDS011;61313;48.396;10.008;2022-10-16T11:48:36;10.07;;;4.20;;
8252;SDS011;61313;48.396;10.008;2022-10-16T11:51:25;8.97;;;5.40;;
8252;SDS011;61313;48.396;10.008;2022-10-16T11:56:43;40.77;;;7.27;;
8252;SDS011;61313;48.396;10.008;2022-10-16T11:59:17;23.03;;;4.40;;
8252;SDS011;61313;48.396;10.008;2022-10-16T12:04:45;30.23;;;6.33;;
8252;SDS011;61313;48.396;10.008;2022-10-16T12:07:21;27.10;;;4.80;;
8252;SDS011;61313;48.396;10.008;2022-10-16T12:09:52;7.90;;;2.87;;
8252;SDS011;61313;48.396;10.008;2022-10-16T12:12:28;69.40;;;10.23;;
8252;SDS011;61313;48.396;10.008;2022-10-16T12:15:25;23.23;;;4.70;;
8252;SDS011;61313;48.396;10.008;2022-10-16T12:17:51;39.07;;;5.90;;
8252;SDS011;61313;48.396;10.008;2022-10-16T12:22:48;9.90;;;3.27;;
8252;SDS011;61313;48.396;10.008;2022-10-16T12:25:25;4.63;;;2.57;;
8252;SDS011;61313;48.396;10.008;2022-10-16T12:27:57;21.50;;;4.40;;
8252;SDS011;61313;48.396;10.008;2022-10-16T12:30:51;17.07;;;3.20;;
8252;SDS011;61313;48.396;10.008;2022-10-16T12:33:26;18.70;;;4.80;;
8252;SDS011;61313;48.396;10.008;2022-10-16T12:35:54;20.57;;;5.23;;
8252;SDS011;61313;48.396;10.008;2022-10-16T12:38:24;29.17;;;4.47;;
8252;SDS011;61313;48.396;10.008;2022-10-16T12:49:04;22.93;;;4.17;;
8252;SDS011;61313;48.396;10.008;2022-10-16T12:51:41;5.67;;;2.40;;
8252;SDS011;61313;48.396;10.008;2022-10-16T13:10:39;13.83;;;3.20;;
8252;SDS011;61313;48.396;10.008;2022-10-16T13:24:28;5.00;;;2.03;;
8252;SDS011;61313;48.396;10.008;2022-10-16T13:27:18;3.53;;;2.33;;
8252;SDS011;61313;48.396;10.008;2022-10-16T13:29:45;4.03;;;2.10;;
8252;SDS011;61313;48.396;10.008;2022-10-16T13:32:20;8.63;;;2.60;;
8252;SDS011;61313;48.396;10.008;2022-10-16T13:34:47;10.43;;;2.80;;
8252;SDS011;61313;48.396;10.008;2022-10-16T13:37:20;8.20;;;3.07;;
8252;SDS011;61313;48.396;10.008;2022-10-16T13:39:47;5.67;;;2.23;;
8252;SDS011;61313;48.396;10.008;2022-10-16T13:42:25;16.60;;;3.10;;
8252;SDS011;61313;48.396;10.008;2022-10-16T13:44:53;3.27;;;1.90;;
8252;SDS011;61313;48.396;10.008;2022-10-16T13:47:21;4.80;;;2.63;;
8252;SDS011;61313;48.396;10.008;2022-10-16T13:49:58;11.23;;;4.20;;
8252;SDS011;61313;48.396;10.008;2022-10-16T13:52:29;3.10;;;2.23;;
8252;SDS011;61313;48.396;10.008;2022-10-16T13:54:55;3.40;;;1.77;;
8252;SDS011;61313;48.396;10.008;2022-10-16T13:57:22;25.07;;;4.13;;
8252;SDS011;61313;48.396;10.008;2022-10-16T13:59:50;11.50;;;2.87;;
8252;SDS011;61313;48.396;10.008;2022-10-16T14:02:26;8.20;;;2.83;;
8252;SDS011;61313;48.396;10.008;2022-10-16T14:05:04;7.73;;;2.40;;
8252;SDS011;61313;48.396;10.008;2022-10-16T14:07:34;4.03;;;2.13;;
8252;SDS011;61313;48.396;10.008;2022-10-16T14:10:03;3.07;;;2.07;;
8252;SDS011;61313;48.396;10.008;2022-10-16T14:12:31;3.30;;;2.17;;
8252;SDS011;61313;48.396;10.008;2022-10-16T14:14:57;3.13;;;2.17;;
8252;SDS011;61313;48.396;10.008;2022-10-16T14:17:25;4.40;;;2.40;;
8252;SDS011;61313;48.396;10.008;2022-10-16T14:19:57;13.83;;;3.50;;
8252;SDS011;61313;48.396;10.008;2022-10-16T14:22:32;12.97;;;3.30;;
8252;SDS011;61313;48.396;10.008;2022-10-16T14:25:01;16.57;;;3.20;;
8252;SDS011;61313;48.396;10.008;2022-10-16T14:27:41;35.97;;;4.87;;
8252;SDS011;61313;48.396;10.008;2022-10-16T14:32:33;14.13;;;3.07;;
8252;SDS011;61313;48.396;10.008;2022-10-16T14:34:59;3.70;;;1.77;;
8252;SDS011;61313;48.396;10.008;2022-10-16T14:37:26;13.13;;;2.80;;
8252;SDS011;61313;48.396;10.008;2022-10-16T14:39:53;11.97;;;2.63;;
8252;SDS011;61313;48.396;10.008;2022-10-16T14:42:21;3.10;;;2.80;;
8252;SDS011;61313;48.396;10.008;2022-10-16T14:44:49;7.83;;;2.63;;
8252;SDS011;61313;48.396;10.008;2022-10-16T14:47:18;3.77;;;1.97;;
8252;SDS011;61313;48.396;10.008;2022-10-16T14:49:49;4.83;;;2.00;;
8252;SDS011;61313;48.396;10.008;2022-10-16T14:52:15;4.70;;;1.60;;
8252;SDS011;61313;48.396;10.008;2022-10-16T14:54:41;2.50;;;1.70;;
8252;SDS011;61313;48.396;10.008;2022-10-16T14:57:16;7.70;;;2.33;;
8252;SDS011;61313;48.396;10.008;2022-10-16T14:59:47;13.43;;;2.80;;
8252;SDS011;61313;48.396;10.008;2022-10-16T15:02:29;23.03;;;3.53;;
8252;SDS011;61313;48.396;10.008;2022-10-16T15:05:12;7.07;;;2.07;;
8252;SDS011;61313;48.396;10.008;2022-10-16T15:07:42;7.57;;;2.60;;
8252;SDS011;61313;48.396;10.008;2022-10-16T15:10:08;8.60;;;2.00;;
8252;SDS011;61313;48.396;10.008;2022-10-16T15:12:34;13.27;;;2.73;;
8252;SDS011;61313;48.396;10.008;2022-10-16T15:15:00;4.33;;;2.10;;
8252;SDS011;61313;48.396;10.008;2022-10-16T15:17:25;3.30;;;2.00;;
8252;SDS011;61313;48.396;10.008;2022-10-16T15:19:51;3.63;;;1.97;;
8252;SDS011;61313;48.396;10.008;2022-10-16T15:22:17;3.77;;;1.77;;
8252;SDS011;61313;48.396;10.008;2022-10-16T15:24:43;9.07;;;2.30;;
8252;SDS011;61313;48.396;10.008;2022-10-16T15:27:08;3.63;;;2.00;;
8252;SDS011;61313;48.396;10.008;2022-10-16T15:29:34;6.07;;;1.80;;
8252;SDS011;61313;48.396;10.008;2022-10-16T15:32:00;3.23;;;1.80;;
8252;SDS011;61313;48.396;10.008;2022-10-16T15:34:25;2.87;;;2.10;;
8252;SDS011;61313;48.396;10.008;2022-10-16T15:36:51;3.30;;;2.37;;
8252;SDS011;61313;48.396;10.008;2022-10-16T15:39:18;4.50;;;2.20;;
8252;SDS011;61313;48.396;10.008;2022-10-16T15:41:45;2.77;;;2.50;;
8252;SDS011;61313;48.396;10.008;2022-10-16T15:44:15;3.60;;;2.77;;
8252;SDS011;61313;48.396;10.008;2022-10-16T15:46:42;6.43;;;3.10;;
8252;SDS011;61313;48.396;10.008;2022-10-16T15:49:07;9.00;;;2.80;;
8252;SDS011;61313;48.396;10.008;2022-10-16T15:51:35;2.70;;;2.30;;
8252;SDS011;61313;48.396;10.008;2022-10-16T15:54:04;4.23;;;2.70;;
8252;SDS011;61313;48.396;10.008;2022-10-16T15:56:30;2.80;;;2.53;;
8252;SDS011;61313;48.396;10.008;2022-10-16T15:58:58;4.90;;;2.80;;
8252;SDS011;61313;48.396;10.008;2022-10-16T16:01:25;4.53;;;3.07;;
8252;SDS011;61313;48.396;10.008;2022-10-16T16:03:54;4.30;;;3.17;;
8252;SDS011;61313;48.396;10.008;2022-10-16T16:06:21;4.20;;;2.87;;
8252;SDS011;61313;48.396;10.008;2022-10-16T16:08:49;7.20;;;3.30;;
8252;SDS011;61313;48.396;10.008;2022-10-16T16:11:15;4.83;;;2.90;;
8252;SDS011;61313;48.396;10.008;2022-10-16T16:13:42;5.87;;;2.87;;
8252;SDS011;61313;48.396;10.008;2022-10-16T16:16:08;7.27;;;4.17;;
8252;SDS011;61313;48.396;10.008;2022-10-16T16:18:35;6.53;;;4.53;;
8252;SDS011;61313;48.396;10.008;2022-10-16T16:21:01;13.93;;;5.23;;
8252;SDS011;61313;48.396;10.008;2022-10-16T16:23:27;13.53;;;5.00;;
8252;SDS011;61313;48.396;10.008;2022-10-16T16:26:07;33.73;;;7.30;;
8252;SDS011;61313;48.396;10.008;2022-10-16T16:28:36;7.57;;;4.10;;
8252;SDS011;61313;48.396;10.008;2022-10-16T16:31:02;8.10;;;4.07;;
8252;SDS011;61313;48.396;10.008;2022-10-16T16:33:29;6.10;;;3.87;;
8252;SDS011;61313;48.396;10.008;2022-10-16T16:35:57;6.13;;;3.30;;
8252;SDS011;61313;48.396;10.008;2022-10-16T16:38:27;65.20;;;9.17;;
8252;SDS011;61313;48.396;10.008;2022-10-16T16:40:53;40.93;;;7.87;;
8252;SDS011;61313;48.396;10.008;2022-10-16T16:43:19;56.80;;;7.90;;
8252;SDS011;61313;48.396;10.008;2022-10-16T16:45:47;5.43;;;4.17;;
8252;SDS011;61313;48.396;10.008;2022-10-16T16:48:13;4.73;;;3.30;;
8252;SDS011;61313;48.396;10.008;2022-10-16T16:50:39;8.10;;;3.40;;
8252;SDS011;61313;48.396;10.008;2022-10-16T16:53:04;8.73;;;4.33;;
8252;SDS011;61313;48.396;10.008;2022-10-16T16:55:30;3.77;;;2.73;;
8252;SDS011;61313;48.396;10.008;2022-10-16T16:57:57;7.70;;;3.10;;
8252;SDS011;61313;48.396;10.008;2022-10-16T17:00:23;8.13;;;3.83;;
8252;SDS011;61313;48.396;10.008;2022-10-16T17:02:49;5.73;;;3.40;;
8252;SDS011;61313;48.396;10.008;2022-10-16T17:05:15;8.67;;;3.60;;
8252;SDS011;61313;48.396;10.008;2022-10-16T17:07:42;6.63;;;3.70;;
8252;SDS011;61313;48.396;10.008;2022-10-16T17:10:08;8.80;;;4.00;;